Ballenstedt Airport


Codes: EDCB/
Name: Ballenstedt Airport
City: Ballenstedt
Country: Germany
Elevation: 535 ft.
Website:

Photos at Ballenstedt Airport


   Photos courtesy of SpottingLog. You can add your own sightings and photos by signing up for a free trial today.



No photos found.

Weather at Ballenstedt Airport


Time (UTC)DescriptionTempratureWindCloud coverageVisibilityPressureHumidity
26-Jun-2024 00:00Broken Clouds19°C2 mph, N57%10000m1015hPa87%
26-Jun-2024 03:00Scattered Clouds17°C2 mph, N38%10000m1015hPa89%
26-Jun-2024 06:00Few Clouds18°C4 mph, NE20%10000m1014hPa84%
26-Jun-2024 09:00Scattered Clouds24°C9 mph, E33%10000m1013hPa70%
26-Jun-2024 12:00Scattered Clouds27°C11 mph, E41%10000m1011hPa58%
26-Jun-2024 15:00Broken Clouds29°C9 mph, SE56%10000m1010hPa55%
26-Jun-2024 18:00Broken Clouds26°C4 mph, NE71%10000m1009hPa70%
26-Jun-2024 21:00Light Rain20°C4 mph, S98%10000m1010hPa85%
27-Jun-2024 00:00Light Rain19°C2 mph, S98%10000m1009hPa87%
27-Jun-2024 03:00Broken Clouds19°C2 mph, SE83%10000m1009hPa88%
27-Jun-2024 06:00Broken Clouds22°C4 mph, SE83%10000m1009hPa81%
27-Jun-2024 09:00Overcast Clouds26°C7 mph, SE99%10000m1008hPa67%
27-Jun-2024 12:00Broken Clouds28°C7 mph, SE54%10000m1008hPa58%
27-Jun-2024 15:00Light Rain27°C9 mph, SW49%10000m1008hPa67%
27-Jun-2024 18:00Light Rain24°C7 mph, SW73%10000m1008hPa82%
27-Jun-2024 21:00Light Rain20°C7 mph, SW14%10000m1009hPa86%
28-Jun-2024 00:00Few Clouds19°C7 mph, SW11%10000m1010hPa87%
28-Jun-2024 03:00Broken Clouds19°C9 mph, SW82%10000m1010hPa89%
28-Jun-2024 06:00Broken Clouds21°C9 mph, W61%10000m1012hPa82%
28-Jun-2024 09:00Light Rain22°C11 mph, W56%10000m1014hPa67%
28-Jun-2024 12:00Scattered Clouds24°C11 mph, W42%10000m1015hPa39%
28-Jun-2024 15:00Few Clouds24°C9 mph, W20%10000m1017hPa44%
28-Jun-2024 18:00Scattered Clouds20°C7 mph, NW40%10000m1018hPa69%
28-Jun-2024 21:00Clear Sky14°C4 mph, NW3%10000m1020hPa85%
29-Jun-2024 00:00Clear Sky13°C2 mph, W2%10000m1020hPa89%
29-Jun-2024 03:00Few Clouds12°C2 mph, SE11%10000m1020hPa90%
29-Jun-2024 06:00Few Clouds16°C4 mph, SE21%10000m1019hPa77%
29-Jun-2024 09:00Clear Sky21°C9 mph, SE3%10000m1017hPa59%
29-Jun-2024 12:00Few Clouds25°C9 mph, SE16%10000m1015hPa49%
29-Jun-2024 15:00Scattered Clouds27°C9 mph, SE42%10000m1011hPa57%
29-Jun-2024 18:00Light Rain25°C4 mph, SE30%10000m1009hPa79%
29-Jun-2024 21:00Light Rain21°C2 mph, SW47%10000m1007hPa91%
30-Jun-2024 00:00Moderate Rain19°C11 mph, NW74%10000m1006hPa97%
30-Jun-2024 03:00Light Rain18°C2 mph, W100%10000m1005hPa94%
30-Jun-2024 06:00Overcast Clouds21°C11 mph, S96%10000m1005hPa90%
30-Jun-2024 09:00Few Clouds23°C20 mph, SW20%10000m1005hPa71%
30-Jun-2024 12:00Light Rain19°C16 mph, SW46%10000m1007hPa78%
30-Jun-2024 15:00Broken Clouds19°C16 mph, W70%10000m1008hPa72%
30-Jun-2024 18:00Overcast Clouds16°C7 mph, W85%10000m1009hPa67%
30-Jun-2024 21:00Broken Clouds13°C7 mph, SW66%10000m1009hPa78%